KDSV/DSV METAR and TAF weather

Enter ICAO airport designator
Station Type Date Time Source
KDSV METAR 2022/11/30 09:54 UTC NOAA

KDSV 300954Z AUTO 16014G27KT 10SM BKN060 OVC085 08/02 A2976 RMK AO2 PK WND 15029/0934 SLP088 T00830017


Station Type Date Time Source
KDSV Decoded METAR 2022/11/30 09:54 UTC NOAA

DANSVILLE MUNICIPAL AIRPORT, NY, United States (KDSV) 42-34N 077-43W 198M
Nov 30, 2022 - 04:54 AM EST / 2022.11.30 0954 UTC
Wind: from the SSE (160 degrees) at 16 MPH (14 KT) gusting to 31 MPH (27 KT):0
Visibility: 10 mile(s):0
Sky conditions: overcast
Temperature: 46.9 F (8.3 C)
Dew Point: 35.1 F (1.7 C)
Relative Humidity: 63%
Pressure (altimeter): 29.76 in. Hg (1007 hPa)
ob: KDSV 300954Z AUTO 16014G27KT 10SM BKN060 OVC085 08/02 A2976 RMK AO2 PK WND 15029/0934 SLP088 T00830017
cycle: 10

Station Type Date Time Source
KDSV TAF UTC NOAA

Error!

Example: see airport list